sensor_id;sensor_type;location;lat;lon;timestamp;pressure;altitude;pressure_sealevel;temperature;humidity
28630;BME280;15817;42.130;24.762;2023-11-22T00:01:55;99256.81;;;10.21;96.59
28630;BME280;15817;42.130;24.762;2023-11-22T00:04:30;99268.34;;;10.20;96.23
28630;BME280;15817;42.130;24.762;2023-11-22T00:06:58;99262.16;;;10.16;96.40
28630;BME280;15817;42.130;24.762;2023-11-22T00:09:36;99254.19;;;10.16;96.98
28630;BME280;15817;42.130;24.762;2023-11-22T00:12:08;99257.78;;;10.15;96.55
28630;BME280;15817;42.130;24.762;2023-11-22T00:14:47;99250.66;;;10.15;96.63
28630;BME280;15817;42.130;24.762;2023-11-22T00:17:23;99255.97;;;10.19;96.60
28630;BME280;15817;42.130;24.762;2023-11-22T00:20:01;99257.72;;;10.20;96.91
28630;BME280;15817;42.130;24.762;2023-11-22T00:22:34;99259.47;;;10.21;96.77
28630;BME280;15817;42.130;24.762;2023-11-22T00:25:12;99235.69;;;10.11;96.59
28630;BME280;15817;42.130;24.762;2023-11-22T00:27:52;99241.88;;;10.12;96.60
28630;BME280;15817;42.130;24.762;2023-11-22T00:30:21;99241.00;;;10.11;96.46
28630;BME280;15817;42.130;24.762;2023-11-22T00:32:53;99244.53;;;10.12;96.41
28630;BME280;15817;42.130;24.762;2023-11-22T00:35:19;99252.47;;;10.15;96.53
28630;BME280;15817;42.130;24.762;2023-11-22T00:37:55;99253.31;;;10.15;96.26
28630;BME280;15817;42.130;24.762;2023-11-22T00:40:24;99248.06;;;10.12;96.47
28630;BME280;15817;42.130;24.762;2023-11-22T00:42:56;99244.50;;;10.15;96.11
28630;BME280;15817;42.130;24.762;2023-11-22T00:45:24;99241.84;;;10.13;95.91
28630;BME280;15817;42.130;24.762;2023-11-22T00:47:55;99233.03;;;10.11;95.79
28630;BME280;15817;42.130;24.762;2023-11-22T00:50:24;99240.09;;;10.11;95.43
28630;BME280;15817;42.130;24.762;2023-11-22T00:52:50;99235.69;;;10.10;95.44
28630;BME280;15817;42.130;24.762;2023-11-22T00:55:16;99246.22;;;10.16;95.57
28630;BME280;15817;42.130;24.762;2023-11-22T00:57:44;99242.81;;;10.08;95.42
28630;BME280;15817;42.130;24.762;2023-11-22T01:00:15;99249.81;;;10.13;95.25
28630;BME280;15817;42.130;24.762;2023-11-22T01:02:41;99241.94;;;10.06;95.70
28630;BME280;15817;42.130;24.762;2023-11-22T01:05:10;99253.41;;;10.09;95.81
28630;BME280;15817;42.130;24.762;2023-11-22T01:07:37;99238.38;;;10.07;96.12
28630;BME280;15817;42.130;24.762;2023-11-22T01:10:09;99229.47;;;10.11;95.84
28630;BME280;15817;42.130;24.762;2023-11-22T01:12:39;99240.91;;;10.16;95.60
28630;BME280;15817;42.130;24.762;2023-11-22T01:15:21;99222.44;;;10.07;95.72
28630;BME280;15817;42.130;24.762;2023-11-22T01:17:58;99221.56;;;10.06;95.62
28630;BME280;15817;42.130;24.762;2023-11-22T01:20:24;99235.59;;;10.16;95.59
28630;BME280;15817;42.130;24.762;2023-11-22T01:22:49;99231.28;;;10.07;95.66
28630;BME280;15817;42.130;24.762;2023-11-22T01:25:15;99233.94;;;10.09;96.00
28630;BME280;15817;42.130;24.762;2023-11-22T01:27:46;99220.69;;;10.04;95.93
28630;BME280;15817;42.130;24.762;2023-11-22T01:30:13;99235.69;;;10.10;95.71
28630;BME280;15817;42.130;24.762;2023-11-22T01:32:43;99227.78;;;10.04;95.57
28630;BME280;15817;42.130;24.762;2023-11-22T01:35:12;99239.22;;;10.12;95.33
28630;BME280;15817;42.130;24.762;2023-11-22T01:37:40;99233.97;;;10.06;95.26
28630;BME280;15817;42.130;24.762;2023-11-22T01:40:08;99225.94;;;10.12;94.76
28630;BME280;15817;42.130;24.762;2023-11-22T01:42:41;99219.78;;;10.08;94.47
28630;BME280;15817;42.130;24.762;2023-11-22T01:45:12;99221.50;;;10.12;94.33
28630;BME280;15817;42.130;24.762;2023-11-22T01:47:43;99209.19;;;10.05;94.20
28630;BME280;15817;42.130;24.762;2023-11-22T01:50:14;99218.03;;;10.06;94.37
28630;BME280;15817;42.130;24.762;2023-11-22T01:52:49;99225.94;;;10.10;94.33
28630;BME280;15817;42.130;24.762;2023-11-22T01:55:15;99224.16;;;10.11;94.40
28630;BME280;15817;42.130;24.762;2023-11-22T01:57:41;99222.38;;;10.11;94.45
28630;BME280;15817;42.130;24.762;2023-11-22T02:00:18;99210.06;;;10.04;94.64
28630;BME280;15817;42.130;24.762;2023-11-22T02:02:48;99210.94;;;10.05;95.33
28630;BME280;15817;42.130;24.762;2023-11-22T02:05:14;99208.28;;;10.06;95.22
28630;BME280;15817;42.130;24.762;2023-11-22T02:07:40;99200.41;;;10.00;95.72
28630;BME280;15817;42.130;24.762;2023-11-22T02:10:10;99201.28;;;10.01;95.69
28630;BME280;15817;42.130;24.762;2023-11-22T02:12:41;99183.63;;;9.97;95.95
28630;BME280;15817;42.130;24.762;2023-11-22T02:15:10;99207.50;;;10.01;96.06
28630;BME280;15817;42.130;24.762;2023-11-22T02:17:47;99211.97;;;9.96;96.31
28630;BME280;15817;42.130;24.762;2023-11-22T02:20:27;99197.91;;;9.91;96.72
28630;BME280;15817;42.130;24.762;2023-11-22T02:22:53;99213.75;;;9.96;97.16
28630;BME280;15817;42.130;24.762;2023-11-22T02:25:20;99196.06;;;9.93;97.33
28630;BME280;15817;42.130;24.762;2023-11-22T02:27:50;99193.41;;;9.93;96.98
28630;BME280;15817;42.130;24.762;2023-11-22T02:30:17;99204.00;;;9.98;97.03
28630;BME280;15817;42.130;24.762;2023-11-22T02:32:54;99190.75;;;9.93;96.59
28630;BME280;15817;42.130;24.762;2023-11-22T02:35:20;99197.78;;;9.99;96.60
28630;BME280;15817;42.130;24.762;2023-11-22T02:37:53;99189.88;;;9.93;96.67
28630;BME280;15817;42.130;24.762;2023-11-22T02:40:22;99200.47;;;9.94;96.69
28630;BME280;15817;42.130;24.762;2023-11-22T02:42:55;99196.13;;;9.92;96.52
28630;BME280;15817;42.130;24.762;2023-11-22T02:45:27;99198.72;;;9.93;96.66
28630;BME280;15817;42.130;24.762;2023-11-22T02:47:54;99182.84;;;9.90;96.71
28630;BME280;15817;42.130;24.762;2023-11-22T02:50:23;99187.22;;;9.94;97.14
28630;BME280;15817;42.130;24.762;2023-11-22T02:52:51;99199.63;;;9.92;96.80
28630;BME280;15817;42.130;24.762;2023-11-22T02:55:17;99190.06;;;9.80;97.82
28630;BME280;15817;42.130;24.762;2023-11-22T02:57:45;99196.16;;;9.87;98.16
28630;BME280;15817;42.130;24.762;2023-11-22T03:00:14;99189.16;;;9.81;98.24
28630;BME280;15817;42.130;24.762;2023-11-22T03:02:45;99213.00;;;9.86;97.89
28630;BME280;15817;42.130;24.762;2023-11-22T03:05:12;99222.78;;;9.82;98.42
28630;BME280;15817;42.130;24.762;2023-11-22T03:07:41;99212.28;;;9.75;98.93
28630;BME280;15817;42.130;24.762;2023-11-22T03:10:07;99213.19;;;9.72;99.11
28630;BME280;15817;42.130;24.762;2023-11-22T03:12:38;99214.94;;;9.75;99.55
28630;BME280;15817;42.130;24.762;2023-11-22T03:15:05;99195.56;;;9.68;99.40
28630;BME280;15817;42.130;24.762;2023-11-22T03:17:31;99189.38;;;9.66;100.00
28630;BME280;15817;42.130;24.762;2023-11-22T03:19:58;99205.25;;;9.69;100.00
28630;BME280;15817;42.130;24.762;2023-11-22T03:22:25;99195.56;;;9.67;100.00
28630;BME280;15817;42.130;24.762;2023-11-22T03:24:51;99184.09;;;9.63;100.00
28630;BME280;15817;42.130;24.762;2023-11-22T03:27:18;99166.41;;;9.62;100.00
28630;BME280;15817;42.130;24.762;2023-11-22T03:29:47;99154.81;;;9.69;100.00
28630;BME280;15817;42.130;24.762;2023-11-22T03:32:21;99154.78;;;9.71;100.00
28630;BME280;15817;42.130;24.762;2023-11-22T03:34:47;99166.19;;;9.79;100.00
28630;BME280;15817;42.130;24.762;2023-11-22T03:37:20;99159.19;;;9.73;100.00
28630;BME280;15817;42.130;24.762;2023-11-22T03:39:46;99173.34;;;9.72;100.00
28630;BME280;15817;42.130;24.762;2023-11-22T03:42:15;99192.03;;;9.66;100.00
28630;BME280;15817;42.130;24.762;2023-11-22T03:44:44;99203.63;;;9.58;100.00
28630;BME280;15817;42.130;24.762;2023-11-22T03:47:14;99218.66;;;9.60;100.00
28630;BME280;15817;42.130;24.762;2023-11-22T03:50:03;99204.63;;;9.51;100.00
28630;BME280;15817;42.130;24.762;2023-11-22T03:52:32;99199.28;;;9.54;100.00
28630;BME280;15817;42.130;24.762;2023-11-22T03:55:00;99197.53;;;9.51;100.00
28630;BME280;15817;42.130;24.762;2023-11-22T03:57:36;99192.13;;;9.59;100.00
28630;BME280;15817;42.130;24.762;2023-11-22T04:00:05;99195.59;;;9.64;100.00
28630;BME280;15817;42.130;24.762;2023-11-22T04:02:41;99192.13;;;9.59;100.00
28630;BME280;15817;42.130;24.762;2023-11-22T04:05:12;99189.41;;;9.63;100.00
28630;BME280;15817;42.130;24.762;2023-11-22T04:07:41;99200.88;;;9.68;100.00
28630;BME280;15817;42.130;24.762;2023-11-22T04:10:10;99199.13;;;9.66;100.00
28630;BME280;15817;42.130;24.762;2023-11-22T04:12:46;99222.03;;;9.71;100.00
28630;BME280;15817;42.130;24.762;2023-11-22T04:15:16;99209.75;;;9.66;100.00
28630;BME280;15817;42.130;24.762;2023-11-22T04:17:55;99208.88;;;9.64;100.00
28630;BME280;15817;42.130;24.762;2023-11-22T04:20:21;99206.22;;;9.65;100.00
28630;BME280;15817;42.130;24.762;2023-11-22T04:22:52;99198.22;;;9.67;100.00
28630;BME280;15817;42.130;24.762;2023-11-22T04:25:21;99204.31;;;9.75;100.00
28630;BME280;15817;42.130;24.762;2023-11-22T04:27:54;99196.34;;;9.73;100.00
28630;BME280;15817;42.130;24.762;2023-11-22T04:30:40;99212.28;;;9.73;100.00
28630;BME280;15817;42.130;24.762;2023-11-22T04:33:06;99230.00;;;9.71;100.00
28630;BME280;15817;42.130;24.762;2023-11-22T04:35:53;99225.66;;;9.67;100.00
28630;BME280;15817;42.130;24.762;2023-11-22T04:38:25;99231.06;;;9.58;100.00
28630;BME280;15817;42.130;24.762;2023-11-22T04:40:55;99232.81;;;9.58;100.00
28630;BME280;15817;42.130;24.762;2023-11-22T04:43:21;99223.06;;;9.60;100.00
28630;BME280;15817;42.130;24.762;2023-11-22T04:45:49;99226.53;;;9.68;100.00
28630;BME280;15817;42.130;24.762;2023-11-22T04:48:20;99245.06;;;9.71;100.00
28630;BME280;15817;42.130;24.762;2023-11-22T04:50:47;99271.63;;;9.71;100.00
28630;BME280;15817;42.130;24.762;2023-11-22T04:53:25;99271.69;;;9.65;100.00
28630;BME280;15817;42.130;24.762;2023-11-22T04:55:51;99269.09;;;9.60;100.00
28630;BME280;15817;42.130;24.762;2023-11-22T04:58:20;99278.75;;;9.67;100.00
28630;BME280;15817;42.130;24.762;2023-11-22T05:01:00;99268.13;;;9.67;100.00
28630;BME280;15817;42.130;24.762;2023-11-22T05:03:43;99273.47;;;9.66;100.00
28630;BME280;15817;42.130;24.762;2023-11-22T05:06:14;99288.44;;;9.70;100.00
28630;BME280;15817;42.130;24.762;2023-11-22T05:08:54;99302.56;;;9.73;100.00
28630;BME280;15817;42.130;24.762;2023-11-22T05:11:34;99313.16;;;9.78;100.00
28630;BME280;15817;42.130;24.762;2023-11-22T05:14:11;99305.22;;;9.75;100.00
28630;BME280;15817;42.130;24.762;2023-11-22T05:16:47;99296.41;;;9.70;100.00
28630;BME280;15817;42.130;24.762;2023-11-22T05:19:22;99292.03;;;9.69;100.00
28630;BME280;15817;42.130;24.762;2023-11-22T05:21:53;99299.09;;;9.68;100.00
28630;BME280;15817;42.130;24.762;2023-11-22T05:24:36;99302.66;;;9.69;100.00
28630;BME280;15817;42.130;24.762;2023-11-22T05:27:25;99291.09;;;9.70;100.00
28630;BME280;15817;42.130;24.762;2023-11-22T05:30:05;99289.38;;;9.69;100.00
28630;BME280;15817;42.130;24.762;2023-11-22T05:32:36;99310.50;;;9.78;100.00
28630;BME280;15817;42.130;24.762;2023-11-22T05:35:10;99307.88;;;9.72;100.00
28630;BME280;15817;42.130;24.762;2023-11-22T05:37:48;99313.19;;;9.73;100.00
28630;BME280;15817;42.130;24.762;2023-11-22T05:40:22;99307.88;;;9.73;100.00
28630;BME280;15817;42.130;24.762;2023-11-22T05:42:58;99317.56;;;9.80;100.00
28630;BME280;15817;42.130;24.762;2023-11-22T05:45:24;99323.72;;;9.81;100.00
28630;BME280;15817;42.130;24.762;2023-11-22T05:47:53;99342.28;;;9.82;100.00
28630;BME280;15817;42.130;24.762;2023-11-22T05:50:25;99347.59;;;9.82;100.00
28630;BME280;15817;42.130;24.762;2023-11-22T05:53:23;99345.00;;;9.79;100.00
28630;BME280;15817;42.130;24.762;2023-11-22T05:56:20;99346.78;;;9.77;100.00
28630;BME280;15817;42.130;24.762;2023-11-22T05:58:50;99351.19;;;9.80;100.00
28630;BME280;15817;42.130;24.762;2023-11-22T06:01:18;99356.44;;;9.83;100.00
28630;BME280;15817;42.130;24.762;2023-11-22T06:03:46;99342.34;;;9.78;100.00
28630;BME280;15817;42.130;24.762;2023-11-22T06:06:27;99359.09;;;9.85;100.00
28630;BME280;15817;42.130;24.762;2023-11-22T06:09:03;99347.63;;;9.81;100.00
28630;BME280;15817;42.130;24.762;2023-11-22T06:11:36;99342.31;;;9.81;100.00
28630;BME280;15817;42.130;24.762;2023-11-22T06:14:17;99340.50;;;9.85;100.00
28630;BME280;15817;42.130;24.762;2023-11-22T06:20:18;99347.59;;;9.82;100.00
28630;BME280;15817;42.130;24.762;2023-11-22T06:36:43;99382.06;;;9.92;100.00
28630;BME280;15817;42.130;24.762;2023-11-22T06:42:53;99380.31;;;9.88;100.00
28630;BME280;15817;42.130;24.762;2023-11-22T06:45:22;99383.88;;;9.84;100.00
28630;BME280;15817;42.130;24.762;2023-11-22T06:48:08;99392.72;;;9.87;100.00
28630;BME280;15817;42.130;24.762;2023-11-22T06:50:37;99405.97;;;9.89;100.00
28630;BME280;15817;42.130;24.762;2023-11-22T06:53:28;99405.06;;;9.91;100.00
28630;BME280;15817;42.130;24.762;2023-11-22T06:56:27;99405.06;;;9.91;100.00
28630;BME280;15817;42.130;24.762;2023-11-22T06:59:06;99411.19;;;9.98;100.00
28630;BME280;15817;42.130;24.762;2023-11-22T07:01:32;99420.06;;;9.97;100.00
28630;BME280;15817;42.130;24.762;2023-11-22T07:03:58;99418.19;;;10.05;100.00
28630;BME280;15817;42.130;24.762;2023-11-22T07:06:42;99417.25;;;10.12;100.00
28630;BME280;15817;42.130;24.762;2023-11-22T07:09:22;99410.09;;;10.20;100.00
28630;BME280;15817;42.130;24.762;2023-11-22T07:11:59;99378.25;;;10.14;100.00
28630;BME280;15817;42.130;24.762;2023-11-22T07:14:31;99380.84;;;10.17;100.00
28630;BME280;15817;42.130;24.762;2023-11-22T07:17:03;99392.34;;;10.21;100.00
28630;BME280;15817;42.130;24.762;2023-11-22T07:19:46;99388.81;;;10.15;100.00
28630;BME280;15817;42.130;24.762;2023-11-22T07:22:21;99389.72;;;10.16;100.00
28630;BME280;15817;42.130;24.762;2023-11-22T07:24:55;99409.16;;;10.24;100.00
28630;BME280;15817;42.130;24.762;2023-11-22T07:27:32;99403.88;;;10.16;100.00
28630;BME280;15817;42.130;24.762;2023-11-22T07:29:58;99413.63;;;10.16;100.00
28630;BME280;15817;42.130;24.762;2023-11-22T07:32:24;99409.28;;;10.09;100.00
28630;BME280;15817;42.130;24.762;2023-11-22T07:34:57;99406.66;;;10.06;100.00
28630;BME280;15817;42.130;24.762;2023-11-22T07:37:28;99423.47;;;10.08;100.00
28630;BME280;15817;42.130;24.762;2023-11-22T07:40:02;99411.06;;;10.08;100.00
28630;BME280;15817;42.130;24.762;2023-11-22T07:42:41;99412.81;;;10.11;100.00
28630;BME280;15817;42.130;24.762;2023-11-22T07:57:29;99431.50;;;10.03;100.00
28630;BME280;15817;42.130;24.762;2023-11-22T08:16:12;99427.22;;;9.89;100.00
28630;BME280;15817;42.130;24.762;2023-11-22T08:18:48;99444.84;;;9.96;100.00
28630;BME280;15817;42.130;24.762;2023-11-22T08:24:20;99436.88;;;9.96;100.00
28630;BME280;15817;42.130;24.762;2023-11-22T08:26:58;99426.31;;;9.91;100.00
28630;BME280;15817;42.130;24.762;2023-11-22T08:29:41;99429.88;;;9.90;100.00
28630;BME280;15817;42.130;24.762;2023-11-22T08:32:13;99445.72;;;9.98;100.00
28630;BME280;15817;42.130;24.762;2023-11-22T08:34:51;99424.47;;;9.96;100.00
28630;BME280;15817;42.130;24.762;2023-11-22T08:37:20;99416.47;;;10.01;100.00
28630;BME280;15817;42.130;24.762;2023-11-22T08:39:58;99422.63;;;10.04;100.00
28630;BME280;15817;42.130;24.762;2023-11-22T08:42:31;99431.44;;;10.09;100.00
28630;BME280;15817;42.130;24.762;2023-11-22T08:45:25;99436.81;;;10.03;100.00
28630;BME280;15817;42.130;24.762;2023-11-22T08:48:17;99437.66;;;10.07;100.00
28630;BME280;15817;42.130;24.762;2023-11-22T08:51:08;99437.66;;;10.05;100.00
28630;BME280;15817;42.130;24.762;2023-11-22T08:53:43;99439.44;;;10.06;100.00
28630;BME280;15817;42.130;24.762;2023-11-22T08:59:25;99430.53;;;10.12;100.00
28630;BME280;15817;42.130;24.762;2023-11-22T09:02:01;99437.56;;;10.19;100.00
28630;BME280;15817;42.130;24.762;2023-11-22T09:04:38;99424.31;;;10.14;100.00
28630;BME280;15817;42.130;24.762;2023-11-22T09:07:07;99424.31;;;10.13;100.00
28630;BME280;15817;42.130;24.762;2023-11-22T09:09:55;99427.84;;;10.15;100.00
28630;BME280;15817;42.130;24.762;2023-11-22T09:12:29;99434.00;;;10.15;100.00
28630;BME280;15817;42.130;24.762;2023-11-22T09:15:08;99442.81;;;10.24;100.00
28630;BME280;15817;42.130;24.762;2023-11-22T09:18:08;99419.81;;;10.16;100.00
28630;BME280;15817;42.130;24.762;2023-11-22T09:20:51;99442.81;;;10.27;100.00
28630;BME280;15817;42.130;24.762;2023-11-22T09:23:18;99445.41;;;10.30;100.00
28630;BME280;15817;42.130;24.762;2023-11-22T09:25:49;99448.06;;;10.28;100.00
28630;BME280;15817;42.130;24.762;2023-11-22T09:28:18;99434.81;;;10.27;100.00
28630;BME280;15817;42.130;24.762;2023-11-22T09:30:47;99445.41;;;10.30;100.00
28630;BME280;15817;42.130;24.762;2023-11-22T09:33:18;99452.44;;;10.35;100.00
28630;BME280;15817;42.130;24.762;2023-11-22T09:36:22;99446.25;;;10.33;100.00
28630;BME280;15817;42.130;24.762;2023-11-22T09:39:05;99448.88;;;10.36;100.00
28630;BME280;15817;42.130;24.762;2023-11-22T09:42:21;99441.78;;;10.37;100.00
28630;BME280;15817;42.130;24.762;2023-11-22T09:45:17;99457.63;;;10.46;100.00
28630;BME280;15817;42.130;24.762;2023-11-22T09:51:01;99454.97;;;10.44;100.00
28630;BME280;15817;42.130;24.762;2023-11-22T09:53:51;99466.38;;;10.54;100.00
28630;BME280;15817;42.130;24.762;2023-11-22T09:56:52;99464.59;;;10.55;100.00
28630;BME280;15817;42.130;24.762;2023-11-22T10:03:06;99453.94;;;10.58;100.00
28630;BME280;15817;42.130;24.762;2023-11-22T10:05:54;99451.19;;;10.62;100.00
28630;BME280;15817;42.130;24.762;2023-11-22T10:08:33;99457.34;;;10.67;100.00
28630;BME280;15817;42.130;24.762;2023-11-22T10:11:16;99447.63;;;10.63;100.00
28630;BME280;15817;42.130;24.762;2023-11-22T10:14:06;99443.13;;;10.70;100.00
28630;BME280;15817;42.130;24.762;2023-11-22T10:17:05;99445.78;;;10.70;100.00
28630;BME280;15817;42.130;24.762;2023-11-22T10:19:44;99445.69;;;10.77;100.00
28630;BME280;15817;42.130;24.762;2023-11-22T10:22:46;99449.19;;;10.82;100.00
28630;BME280;15817;42.130;24.762;2023-11-22T10:26:03;99454.50;;;10.82;100.00
28630;BME280;15817;42.130;24.762;2023-11-22T10:28:45;99441.22;;;10.79;100.00
28630;BME280;15817;42.130;24.762;2023-11-22T10:31:34;99443.00;;;10.80;100.00
28630;BME280;15817;42.130;24.762;2023-11-22T10:34:10;99437.59;;;10.85;100.00
28630;BME280;15817;42.130;24.762;2023-11-22T10:40:15;99441.94;;;10.92;100.00
28630;BME280;15817;42.130;24.762;2023-11-22T10:43:05;99443.72;;;10.92;100.00
28630;BME280;15817;42.130;24.762;2023-11-22T10:45:52;99448.16;;;10.93;100.00
28630;BME280;15817;42.130;24.762;2023-11-22T10:48:34;99458.69;;;10.97;100.00
28630;BME280;15817;42.130;24.762;2023-11-22T10:51:20;99441.06;;;10.92;100.00
28630;BME280;15817;42.130;24.762;2023-11-22T10:54:10;99436.59;;;10.95;100.00
28630;BME280;15817;42.130;24.762;2023-11-22T10:56:59;99441.84;;;10.97;100.00
28630;BME280;15817;42.130;24.762;2023-11-22T10:59:46;99445.34;;;11.00;100.00
28630;BME280;15817;42.130;24.762;2023-11-22T11:02:28;99456.84;;;11.05;100.00
28630;BME280;15817;42.130;24.762;2023-11-22T11:05:28;99452.28;;;11.12;100.00
28630;BME280;15817;42.130;24.762;2023-11-22T11:08:21;99450.44;;;11.17;100.00
28630;BME280;15817;42.130;24.762;2023-11-22T11:14:59;99444.13;;;11.24;100.00
28630;BME280;15817;42.130;24.762;2023-11-22T11:17:55;99456.41;;;11.33;100.00
28630;BME280;15817;42.130;24.762;2023-11-22T11:20:58;99456.38;;;11.34;100.00
28630;BME280;15817;42.130;24.762;2023-11-22T11:26:33;99464.28;;;11.42;100.00
28630;BME280;15817;42.130;24.762;2023-11-22T11:29:05;99476.66;;;11.43;100.00
28630;BME280;15817;42.130;24.762;2023-11-22T11:31:39;99482.84;;;11.45;100.00
28630;BME280;15817;42.130;24.762;2023-11-22T11:37:38;99482.84;;;11.45;100.00
28630;BME280;15817;42.130;24.762;2023-11-22T11:40:25;99461.66;;;11.37;100.00
28630;BME280;15817;42.130;24.762;2023-11-22T11:54:16;99479.03;;;11.61;100.00
28630;BME280;15817;42.130;24.762;2023-11-22T11:57:09;99469.22;;;11.65;100.00
28630;BME280;15817;42.130;24.762;2023-11-22T12:00:02;99479.72;;;11.75;100.00
28630;BME280;15817;42.130;24.762;2023-11-22T12:02:45;99477.88;;;11.79;100.00
28630;BME280;15817;42.130;24.762;2023-11-22T12:05:36;99478.72;;;11.81;100.00
28630;BME280;15817;42.130;24.762;2023-11-22T12:08:24;99477.72;;;11.88;100.00
28630;BME280;15817;42.130;24.762;2023-11-22T12:11:33;99456.44;;;11.86;100.00
28630;BME280;15817;42.130;24.762;2023-11-22T12:15:02;99460.66;;;11.98;100.00
28630;BME280;15817;42.130;24.762;2023-11-22T12:17:39;99443.00;;;11.92;100.00
28630;BME280;15817;42.130;24.762;2023-11-22T12:20:19;99445.66;;;11.92;100.00
28630;BME280;15817;42.130;24.762;2023-11-22T12:26:13;99451.72;;;12.01;100.00
28630;BME280;15817;42.130;24.762;2023-11-22T12:28:44;99444.72;;;11.95;100.00
28630;BME280;15817;42.130;24.762;2023-11-22T12:31:46;99450.91;;;11.97;100.00
28630;BME280;15817;42.130;24.762;2023-11-22T12:34:24;99442.97;;;11.94;100.00
28630;BME280;15817;42.130;24.762;2023-11-22T12:36:59;99451.63;;;12.05;100.00
28630;BME280;15817;42.130;24.762;2023-11-22T12:39:47;99449.03;;;12.01;100.00
28630;BME280;15817;42.130;24.762;2023-11-22T12:42:28;99459.53;;;12.11;100.00
28630;BME280;15817;42.130;24.762;2023-11-22T12:45:20;99464.00;;;12.11;100.00
28630;BME280;15817;42.130;24.762;2023-11-22T12:48:25;99473.69;;;12.13;100.00
28630;BME280;15817;42.130;24.762;2023-11-22T12:55:45;99475.44;;;12.16;100.00
28630;BME280;15817;42.130;24.762;2023-11-22T12:58:22;99482.53;;;12.15;100.00
28630;BME280;15817;42.130;24.762;2023-11-22T13:01:21;99489.63;;;12.18;100.00
28630;BME280;15817;42.130;24.762;2023-11-22T13:26:47;99512.81;;;12.13;100.00
28630;BME280;15817;42.130;24.762;2023-11-22T13:29:21;99527.00;;;12.13;100.00
28630;BME280;15817;42.130;24.762;2023-11-22T13:32:21;99523.59;;;12.07;100.00
28630;BME280;15817;42.130;24.762;2023-11-22T13:35:02;99526.28;;;12.04;100.00
28630;BME280;15817;42.130;24.762;2023-11-22T13:37:41;99534.31;;;12.02;100.00
28630;BME280;15817;42.130;24.762;2023-11-22T13:40:28;99536.06;;;12.05;100.00
28630;BME280;15817;42.130;24.762;2023-11-22T13:43:01;99525.47;;;12.00;100.00
28630;BME280;15817;42.130;24.762;2023-11-22T13:45:52;99537.97;;;11.98;100.00
28630;BME280;15817;42.130;24.762;2023-11-22T13:48:51;99548.59;;;12.00;100.00
28630;BME280;15817;42.130;24.762;2023-11-22T13:51:50;99554.00;;;11.95;100.00
28630;BME280;15817;42.130;24.762;2023-11-22T13:54:43;99561.88;;;12.01;100.00
28630;BME280;15817;42.130;24.762;2023-11-22T13:57:43;99548.66;;;11.95;100.00
28630;BME280;15817;42.130;24.762;2023-11-22T14:00:33;99556.63;;;11.96;100.00
28630;BME280;15817;42.130;24.762;2023-11-22T14:03:22;99554.91;;;11.92;100.00
28630;BME280;15817;42.130;24.762;2023-11-22T14:05:57;99560.22;;;11.94;100.00
28630;BME280;15817;42.130;24.762;2023-11-22T14:08:42;99554.91;;;11.94;100.00
28630;BME280;15817;42.130;24.762;2023-11-22T14:11:28;99564.69;;;11.93;100.00
28630;BME280;15817;42.130;24.762;2023-11-22T14:14:09;99573.50;;;11.97;100.00
28630;BME280;15817;42.130;24.762;2023-11-22T14:24:32;99564.78;;;11.87;100.00
28630;BME280;15817;42.130;24.762;2023-11-22T14:27:43;99572.72;;;11.90;100.00
28630;BME280;15817;42.130;24.762;2023-11-22T14:30:32;99563.06;;;11.83;100.00
28630;BME280;15817;42.130;24.762;2023-11-22T14:33:09;99560.41;;;11.83;100.00
28630;BME280;15817;42.130;24.762;2023-11-22T14:36:35;99559.53;;;11.83;100.00
28630;BME280;15817;42.130;24.762;2023-11-22T14:42:48;99575.56;;;11.80;100.00
28630;BME280;15817;42.130;24.762;2023-11-22T14:45:46;99599.53;;;11.80;100.00
28630;BME280;15817;42.130;24.762;2023-11-22T14:48:29;99601.31;;;11.79;100.00
28630;BME280;15817;42.130;24.762;2023-11-22T14:51:51;99611.97;;;11.78;100.00
28630;BME280;15817;42.130;24.762;2023-11-22T14:55:09;99608.50;;;11.76;100.00
28630;BME280;15817;42.130;24.762;2023-11-22T14:58:33;99618.25;;;11.75;100.00
28630;BME280;15817;42.130;24.762;2023-11-22T15:01:55;99612.94;;;11.74;100.00
28630;BME280;15817;42.130;24.762;2023-11-22T15:04:50;99609.41;;;11.72;100.00
28630;BME280;15817;42.130;24.762;2023-11-22T15:08:21;99622.69;;;11.73;100.00
28630;BME280;15817;42.130;24.762;2023-11-22T15:11:26;99646.63;;;11.78;100.00
28630;BME280;15817;42.130;24.762;2023-11-22T15:14:42;99643.13;;;11.73;100.00
28630;BME280;15817;42.130;24.762;2023-11-22T15:21:25;99643.19;;;11.68;100.00
28630;BME280;15817;42.130;24.762;2023-11-22T15:40:04;99678.78;;;11.63;100.00
28630;BME280;15817;42.130;24.762;2023-11-22T15:43:17;99677.91;;;11.64;100.00
28630;BME280;15817;42.130;24.762;2023-11-22T17:39:09;99866.75;;;11.92;100.00
28630;BME280;15817;42.130;24.762;2023-11-22T18:03:48;99896.13;;;11.88;100.00
28630;BME280;15817;42.130;24.762;2023-11-22T18:11:20;99907.63;;;11.91;100.00
28630;BME280;15817;42.130;24.762;2023-11-22T18:14:36;99912.13;;;11.88;100.00
28630;BME280;15817;42.130;24.762;2023-11-22T18:17:10;99926.28;;;11.91;100.00
28630;BME280;15817;42.130;24.762;2023-11-22T18:37:51;99945.91;;;11.84;100.00
28630;BME280;15817;42.130;24.762;2023-11-22T19:02:18;99987.69;;;11.78;100.00
28630;BME280;15817;42.130;24.762;2023-11-22T21:40:45;100155.66;;;11.63;100.00
28630;BME280;15817;42.130;24.762;2023-11-22T21:55:07;100168.94;;;11.66;100.00
28630;BME280;15817;42.130;24.762;2023-11-22T21:58:14;100175.16;;;11.66;100.00
28630;BME280;15817;42.130;24.762;2023-11-22T22:05:33;100188.47;;;11.68;100.00
28630;BME280;15817;42.130;24.762;2023-11-22T22:35:38;100186.75;;;11.54;100.00